sensor_id;sensor_type;location;lat;lon;timestamp;temperature;humidity
58519;DHT22;44310;48.106;12.008;2023-02-28T00:01:31;15.10;73.80
58519;DHT22;44310;48.106;12.008;2023-02-28T00:03:58;14.60;73.20
58519;DHT22;44310;48.106;12.008;2023-02-28T00:06:25;15.00;73.30
58519;DHT22;44310;48.106;12.008;2023-02-28T00:08:53;15.00;73.10
58519;DHT22;44310;48.106;12.008;2023-02-28T00:11:20;14.90;73.00
58519;DHT22;44310;48.106;12.008;2023-02-28T00:13:48;14.90;72.90
58519;DHT22;44310;48.106;12.008;2023-02-28T00:16:20;14.90;73.00
58519;DHT22;44310;48.106;12.008;2023-02-28T00:18:48;14.90;72.90
58519;DHT22;44310;48.106;12.008;2023-02-28T00:21:16;14.80;72.70
58519;DHT22;44310;48.106;12.008;2023-02-28T00:23:44;14.90;72.60
58519;DHT22;44310;48.106;12.008;2023-02-28T00:26:11;14.80;72.60
58519;DHT22;44310;48.106;12.008;2023-02-28T00:28:38;14.80;72.80
58519;DHT22;44310;48.106;12.008;2023-02-28T00:31:05;14.90;72.70
58519;DHT22;44310;48.106;12.008;2023-02-28T00:33:33;14.70;72.70
58519;DHT22;44310;48.106;12.008;2023-02-28T00:36:05;15.70;73.20
58519;DHT22;44310;48.106;12.008;2023-02-28T00:38:32;14.80;72.30
58519;DHT22;44310;48.106;12.008;2023-02-28T00:41:00;15.30;72.30
58519;DHT22;44310;48.106;12.008;2023-02-28T00:43:36;14.80;72.00
58519;DHT22;44310;48.106;12.008;2023-02-28T00:46:04;14.80;72.10
58519;DHT22;44310;48.106;12.008;2023-02-28T00:48:31;14.80;72.10
58519;DHT22;44310;48.106;12.008;2023-02-28T00:50:59;14.80;72.30
58519;DHT22;44310;48.106;12.008;2023-02-28T00:53:26;14.90;72.60
58519;DHT22;44310;48.106;12.008;2023-02-28T00:55:54;14.90;73.80
58519;DHT22;44310;48.106;12.008;2023-02-28T00:58:21;14.90;73.00
58519;DHT22;44310;48.106;12.008;2023-02-28T01:00:48;15.00;72.90
58519;DHT22;44310;48.106;12.008;2023-02-28T01:03:17;14.90;73.00
58519;DHT22;44310;48.106;12.008;2023-02-28T01:05:45;15.10;72.90
58519;DHT22;44310;48.106;12.008;2023-02-28T01:08:13;15.00;72.70
58519;DHT22;44310;48.106;12.008;2023-02-28T01:10:41;16.20;73.40
58519;DHT22;44310;48.106;12.008;2023-02-28T01:13:09;14.90;72.40
58519;DHT22;44310;48.106;12.008;2023-02-28T01:15:37;14.90;72.40
58519;DHT22;44310;48.106;12.008;2023-02-28T01:18:04;14.90;71.70
58519;DHT22;44310;48.106;12.008;2023-02-28T01:20:31;14.90;72.30
58519;DHT22;44310;48.106;12.008;2023-02-28T01:22:59;14.80;71.50
58519;DHT22;44310;48.106;12.008;2023-02-28T01:25:26;14.80;71.60
58519;DHT22;44310;48.106;12.008;2023-02-28T01:27:53;14.80;71.40
58519;DHT22;44310;48.106;12.008;2023-02-28T01:30:20;14.90;72.50
58519;DHT22;44310;48.106;12.008;2023-02-28T01:32:47;14.90;73.00
58519;DHT22;44310;48.106;12.008;2023-02-28T01:35:14;15.00;72.80
58519;DHT22;44310;48.106;12.008;2023-02-28T01:37:41;15.00;72.30
58519;DHT22;44310;48.106;12.008;2023-02-28T01:40:09;15.20;72.20
58519;DHT22;44310;48.106;12.008;2023-02-28T01:42:36;14.90;71.90
58519;DHT22;44310;48.106;12.008;2023-02-28T01:45:23;13.90;71.50
58519;DHT22;44310;48.106;12.008;2023-02-28T01:47:55;14.90;72.30
58519;DHT22;44310;48.106;12.008;2023-02-28T01:50:28;14.90;72.30
58519;DHT22;44310;48.106;12.008;2023-02-28T01:52:58;14.90;72.20
58519;DHT22;44310;48.106;12.008;2023-02-28T01:55:28;15.00;72.50
58519;DHT22;44310;48.106;12.008;2023-02-28T01:57:58;14.90;72.30
58519;DHT22;44310;48.106;12.008;2023-02-28T02:00:27;14.90;72.30
58519;DHT22;44310;48.106;12.008;2023-02-28T02:02:58;15.00;72.40
58519;DHT22;44310;48.106;12.008;2023-02-28T02:05:29;14.90;72.30
58519;DHT22;44310;48.106;12.008;2023-02-28T02:08:04;14.90;72.20
58519;DHT22;44310;48.106;12.008;2023-02-28T02:10:43;14.90;72.00
58519;DHT22;44310;48.106;12.008;2023-02-28T02:13:37;15.50;71.90
58519;DHT22;44310;48.106;12.008;2023-02-28T02:16:23;14.90;71.30
58519;DHT22;44310;48.106;12.008;2023-02-28T02:18:56;14.90;71.10
58519;DHT22;44310;48.106;12.008;2023-02-28T02:27:25;14.80;70.70
58519;DHT22;44310;48.106;12.008;2023-02-28T02:35:53;14.90;70.80
58519;DHT22;44310;48.106;12.008;2023-02-28T02:38:33;14.90;71.10
58519;DHT22;44310;48.106;12.008;2023-02-28T02:44:24;15.00;71.70
58519;DHT22;44310;48.106;12.008;2023-02-28T02:47:15;15.00;71.90
58519;DHT22;44310;48.106;12.008;2023-02-28T02:49:49;14.90;71.80
58519;DHT22;44310;48.106;12.008;2023-02-28T02:52:20;14.90;71.90
58519;DHT22;44310;48.106;12.008;2023-02-28T02:54:50;15.10;72.10
58519;DHT22;44310;48.106;12.008;2023-02-28T02:57:35;14.80;72.00
58519;DHT22;44310;48.106;12.008;2023-02-28T03:00:05;14.80;71.80
58519;DHT22;44310;48.106;12.008;2023-02-28T03:02:37;14.80;71.80
58519;DHT22;44310;48.106;12.008;2023-02-28T03:05:08;14.80;71.70
58519;DHT22;44310;48.106;12.008;2023-02-28T03:07:41;14.80;72.00
58519;DHT22;44310;48.106;12.008;2023-02-28T03:10:38;14.80;72.00
58519;DHT22;44310;48.106;12.008;2023-02-28T03:13:36;14.80;72.00
58519;DHT22;44310;48.106;12.008;2023-02-28T03:24:08;14.90;73.20
58519;DHT22;44310;48.106;12.008;2023-02-28T03:26:45;14.90;73.40
58519;DHT22;44310;48.106;12.008;2023-02-28T03:29:23;15.00;73.30
58519;DHT22;44310;48.106;12.008;2023-02-28T03:34:36;14.90;73.20
58519;DHT22;44310;48.106;12.008;2023-02-28T03:37:11;15.10;73.20
58519;DHT22;44310;48.106;12.008;2023-02-28T03:39:53;14.90;72.90
58519;DHT22;44310;48.106;12.008;2023-02-28T03:42:25;14.90;72.90
58519;DHT22;44310;48.106;12.008;2023-02-28T03:44:57;14.90;72.90
58519;DHT22;44310;48.106;12.008;2023-02-28T03:50:10;14.90;72.20
58519;DHT22;44310;48.106;12.008;2023-02-28T03:52:46;14.60;71.90
58519;DHT22;44310;48.106;12.008;2023-02-28T03:55:14;14.90;72.00
58519;DHT22;44310;48.106;12.008;2023-02-28T04:00:30;14.90;71.20
58519;DHT22;44310;48.106;12.008;2023-02-28T04:02:59;14.90;71.40
58519;DHT22;44310;48.106;12.008;2023-02-28T04:05:27;14.90;71.50
58519;DHT22;44310;48.106;12.008;2023-02-28T04:07:54;14.90;71.40
58519;DHT22;44310;48.106;12.008;2023-02-28T04:10:29;15.10;71.40
58519;DHT22;44310;48.106;12.008;2023-02-28T04:12:56;14.90;71.20
58519;DHT22;44310;48.106;12.008;2023-02-28T04:15:24;15.00;71.10
58519;DHT22;44310;48.106;12.008;2023-02-28T04:17:51;14.90;71.10
58519;DHT22;44310;48.106;12.008;2023-02-28T04:20:18;14.90;71.20
58519;DHT22;44310;48.106;12.008;2023-02-28T04:22:45;14.90;71.70
58519;DHT22;44310;48.106;12.008;2023-02-28T04:25:12;14.90;71.40
58519;DHT22;44310;48.106;12.008;2023-02-28T04:27:40;14.90;71.20
58519;DHT22;44310;48.106;12.008;2023-02-28T04:30:07;14.90;71.20
58519;DHT22;44310;48.106;12.008;2023-02-28T04:32:34;14.90;71.10
58519;DHT22;44310;48.106;12.008;2023-02-28T04:35:01;14.40;70.40
58519;DHT22;44310;48.106;12.008;2023-02-28T04:37:29;14.80;70.30
58519;DHT22;44310;48.106;12.008;2023-02-28T04:39:56;14.80;70.50
58519;DHT22;44310;48.106;12.008;2023-02-28T04:42:23;14.80;70.60
58519;DHT22;44310;48.106;12.008;2023-02-28T04:44:50;15.40;70.80
58519;DHT22;44310;48.106;12.008;2023-02-28T04:47:17;14.80;70.50
58519;DHT22;44310;48.106;12.008;2023-02-28T04:49:45;14.80;70.50
58519;DHT22;44310;48.106;12.008;2023-02-28T04:52:12;14.80;70.40
58519;DHT22;44310;48.106;12.008;2023-02-28T04:54:40;14.70;70.50
58519;DHT22;44310;48.106;12.008;2023-02-28T04:57:07;14.80;71.70
58519;DHT22;44310;48.106;12.008;2023-02-28T04:59:34;14.90;71.90
58519;DHT22;44310;48.106;12.008;2023-02-28T05:02:01;14.90;71.50
58519;DHT22;44310;48.106;12.008;2023-02-28T05:04:34;14.90;71.20
58519;DHT22;44310;48.106;12.008;2023-02-28T05:07:02;14.90;71.00
58519;DHT22;44310;48.106;12.008;2023-02-28T05:09:30;14.90;70.90
58519;DHT22;44310;48.106;12.008;2023-02-28T05:11:57;14.90;70.70
58519;DHT22;44310;48.106;12.008;2023-02-28T05:14:24;14.90;70.50
58519;DHT22;44310;48.106;12.008;2023-02-28T05:16:52;14.90;70.30
58519;DHT22;44310;48.106;12.008;2023-02-28T05:19:19;14.80;70.10
58519;DHT22;44310;48.106;12.008;2023-02-28T05:21:51;14.80;70.10
58519;DHT22;44310;48.106;12.008;2023-02-28T05:24:19;14.90;70.00
58519;DHT22;44310;48.106;12.008;2023-02-28T05:26:51;14.80;70.00
58519;DHT22;44310;48.106;12.008;2023-02-28T05:29:19;14.80;69.70
58519;DHT22;44310;48.106;12.008;2023-02-28T05:31:47;14.80;69.70
58519;DHT22;44310;48.106;12.008;2023-02-28T05:34:14;14.80;69.50
58519;DHT22;44310;48.106;12.008;2023-02-28T05:36:42;14.70;69.30
58519;DHT22;44310;48.106;12.008;2023-02-28T05:39:10;14.80;69.40
58519;DHT22;44310;48.106;12.008;2023-02-28T05:41:41;14.70;69.50
58519;DHT22;44310;48.106;12.008;2023-02-28T05:44:08;14.80;70.60
58519;DHT22;44310;48.106;12.008;2023-02-28T05:46:36;14.80;71.00
58519;DHT22;44310;48.106;12.008;2023-02-28T05:49:03;14.90;71.80
58519;DHT22;44310;48.106;12.008;2023-02-28T05:51:30;14.90;71.80
58519;DHT22;44310;48.106;12.008;2023-02-28T05:53:59;15.30;72.20
58519;DHT22;44310;48.106;12.008;2023-02-28T05:56:28;14.90;72.20
58519;DHT22;44310;48.106;12.008;2023-02-28T05:58:55;15.00;72.40
58519;DHT22;44310;48.106;12.008;2023-02-28T06:01:43;15.10;72.40
58519;DHT22;44310;48.106;12.008;2023-02-28T06:04:17;15.00;72.30
58519;DHT22;44310;48.106;12.008;2023-02-28T06:06:58;14.90;72.10
58519;DHT22;44310;48.106;12.008;2023-02-28T06:09:25;14.90;72.30
58519;DHT22;44310;48.106;12.008;2023-02-28T06:11:52;14.90;72.40
58519;DHT22;44310;48.106;12.008;2023-02-28T06:14:20;14.90;72.40
58519;DHT22;44310;48.106;12.008;2023-02-28T06:16:47;14.90;72.30
58519;DHT22;44310;48.106;12.008;2023-02-28T06:19:15;14.90;72.40
58519;DHT22;44310;48.106;12.008;2023-02-28T06:21:42;14.90;72.40
58519;DHT22;44310;48.106;12.008;2023-02-28T06:24:10;14.90;72.30
58519;DHT22;44310;48.106;12.008;2023-02-28T06:26:37;15.00;72.40
58519;DHT22;44310;48.106;12.008;2023-02-28T06:29:04;14.90;72.40
58519;DHT22;44310;48.106;12.008;2023-02-28T06:31:32;14.90;72.20
58519;DHT22;44310;48.106;12.008;2023-02-28T06:33:59;15.00;72.10
58519;DHT22;44310;48.106;12.008;2023-02-28T06:36:26;15.00;71.90
58519;DHT22;44310;48.106;12.008;2023-02-28T06:38:54;14.90;71.80
58519;DHT22;44310;48.106;12.008;2023-02-28T06:41:25;14.90;71.70
58519;DHT22;44310;48.106;12.008;2023-02-28T06:43:53;15.00;71.40
58519;DHT22;44310;48.106;12.008;2023-02-28T06:46:20;14.90;71.10
58519;DHT22;44310;48.106;12.008;2023-02-28T06:48:47;14.90;70.90
58519;DHT22;44310;48.106;12.008;2023-02-28T06:51:17;14.90;70.80
58519;DHT22;44310;48.106;12.008;2023-02-28T06:53:46;14.90;70.90
58519;DHT22;44310;48.106;12.008;2023-02-28T06:56:14;14.50;70.60
58519;DHT22;44310;48.106;12.008;2023-02-28T06:58:45;15.00;70.80
58519;DHT22;44310;48.106;12.008;2023-02-28T07:01:13;14.90;70.70
58519;DHT22;44310;48.106;12.008;2023-02-28T07:03:41;14.90;70.50
58519;DHT22;44310;48.106;12.008;2023-02-28T07:06:08;14.90;70.30
58519;DHT22;44310;48.106;12.008;2023-02-28T07:08:35;14.90;70.20
58519;DHT22;44310;48.106;12.008;2023-02-28T07:11:03;14.40;70.40
58519;DHT22;44310;48.106;12.008;2023-02-28T07:13:30;15.00;71.00
58519;DHT22;44310;48.106;12.008;2023-02-28T07:16:05;14.50;70.60
58519;DHT22;44310;48.106;12.008;2023-02-28T07:18:35;15.00;70.60
58519;DHT22;44310;48.106;12.008;2023-02-28T07:21:03;14.90;70.50
58519;DHT22;44310;48.106;12.008;2023-02-28T07:23:31;14.90;70.40
58519;DHT22;44310;48.106;12.008;2023-02-28T07:25:58;14.90;70.30
58519;DHT22;44310;48.106;12.008;2023-02-28T07:28:26;14.90;70.40
58519;DHT22;44310;48.106;12.008;2023-02-28T07:30:53;14.90;70.50
58519;DHT22;44310;48.106;12.008;2023-02-28T07:33:20;14.90;70.40
58519;DHT22;44310;48.106;12.008;2023-02-28T07:35:47;14.90;70.50
58519;DHT22;44310;48.106;12.008;2023-02-28T07:38:14;14.90;70.30
58519;DHT22;44310;48.106;12.008;2023-02-28T07:40:41;15.00;70.60
58519;DHT22;44310;48.106;12.008;2023-02-28T07:43:08;14.90;70.40
58519;DHT22;44310;48.106;12.008;2023-02-28T07:45:36;14.90;70.20
58519;DHT22;44310;48.106;12.008;2023-02-28T07:48:03;14.90;70.20
58519;DHT22;44310;48.106;12.008;2023-02-28T07:50:30;14.90;70.30
58519;DHT22;44310;48.106;12.008;2023-02-28T07:52:58;14.90;70.70
58519;DHT22;44310;48.106;12.008;2023-02-28T07:55:26;14.90;71.00
58519;DHT22;44310;48.106;12.008;2023-02-28T07:57:53;15.00;71.10
58519;DHT22;44310;48.106;12.008;2023-02-28T08:00:21;15.00;71.30
58519;DHT22;44310;48.106;12.008;2023-02-28T08:02:49;14.90;71.70
58519;DHT22;44310;48.106;12.008;2023-02-28T08:05:16;15.00;71.60
58519;DHT22;44310;48.106;12.008;2023-02-28T08:07:45;15.00;71.60
58519;DHT22;44310;48.106;12.008;2023-02-28T08:10:14;15.00;71.50
58519;DHT22;44310;48.106;12.008;2023-02-28T08:12:41;15.00;71.50
58519;DHT22;44310;48.106;12.008;2023-02-28T08:15:09;15.00;71.60
58519;DHT22;44310;48.106;12.008;2023-02-28T08:17:36;14.90;71.80
58519;DHT22;44310;48.106;12.008;2023-02-28T08:20:03;15.00;71.80
58519;DHT22;44310;48.106;12.008;2023-02-28T08:22:31;15.00;71.70
58519;DHT22;44310;48.106;12.008;2023-02-28T08:24:58;15.00;71.70
58519;DHT22;44310;48.106;12.008;2023-02-28T08:27:25;15.00;72.00
58519;DHT22;44310;48.106;12.008;2023-02-28T08:29:52;14.70;72.30
58519;DHT22;44310;48.106;12.008;2023-02-28T08:32:19;15.00;72.70
58519;DHT22;44310;48.106;12.008;2023-02-28T08:34:56;15.00;72.80
58519;DHT22;44310;48.106;12.008;2023-02-28T08:37:23;15.00;72.70
58519;DHT22;44310;48.106;12.008;2023-02-28T08:39:50;15.00;73.50
58519;DHT22;44310;48.106;12.008;2023-02-28T08:42:22;14.60;72.50
58519;DHT22;44310;48.106;12.008;2023-02-28T08:44:49;14.90;72.80
58519;DHT22;44310;48.106;12.008;2023-02-28T08:47:17;14.90;72.90
58519;DHT22;44310;48.106;12.008;2023-02-28T08:49:44;14.90;72.90
58519;DHT22;44310;48.106;12.008;2023-02-28T08:52:11;15.00;72.80
58519;DHT22;44310;48.106;12.008;2023-02-28T08:54:38;14.60;72.50
58519;DHT22;44310;48.106;12.008;2023-02-28T08:57:05;14.90;72.60
58519;DHT22;44310;48.106;12.008;2023-02-28T08:59:32;14.90;72.60
58519;DHT22;44310;48.106;12.008;2023-02-28T09:01:59;14.80;72.30
58519;DHT22;44310;48.106;12.008;2023-02-28T09:04:27;14.90;72.50
58519;DHT22;44310;48.106;12.008;2023-02-28T09:06:57;14.90;72.60
58519;DHT22;44310;48.106;12.008;2023-02-28T09:09:24;15.40;72.40
58519;DHT22;44310;48.106;12.008;2023-02-28T09:11:51;14.90;72.00
58519;DHT22;44310;48.106;12.008;2023-02-28T09:14:18;14.90;71.60
58519;DHT22;44310;48.106;12.008;2023-02-28T09:16:46;14.90;71.30
58519;DHT22;44310;48.106;12.008;2023-02-28T09:19:13;14.90;71.50
58519;DHT22;44310;48.106;12.008;2023-02-28T09:21:40;14.90;71.60
58519;DHT22;44310;48.106;12.008;2023-02-28T09:24:08;14.80;71.60
58519;DHT22;44310;48.106;12.008;2023-02-28T09:26:35;15.30;71.60
58519;DHT22;44310;48.106;12.008;2023-02-28T09:29:13;14.80;71.00
58519;DHT22;44310;48.106;12.008;2023-02-28T09:31:41;14.80;70.20
58519;DHT22;44310;48.106;12.008;2023-02-28T09:34:08;14.80;70.10
58519;DHT22;44310;48.106;12.008;2023-02-28T09:36:35;14.80;70.00
58519;DHT22;44310;48.106;12.008;2023-02-28T09:39:12;14.80;70.30
58519;DHT22;44310;48.106;12.008;2023-02-28T09:41:44;14.80;70.70
58519;DHT22;44310;48.106;12.008;2023-02-28T09:44:36;14.60;70.50
58519;DHT22;44310;48.106;12.008;2023-02-28T09:47:27;14.90;70.70
58519;DHT22;44310;48.106;12.008;2023-02-28T09:49:58;14.90;70.80
58519;DHT22;44310;48.106;12.008;2023-02-28T09:52:30;14.90;70.80
58519;DHT22;44310;48.106;12.008;2023-02-28T09:55:15;14.90;70.70
58519;DHT22;44310;48.106;12.008;2023-02-28T09:57:45;14.90;70.50
58519;DHT22;44310;48.106;12.008;2023-02-28T10:00:27;14.90;70.00
58519;DHT22;44310;48.106;12.008;2023-02-28T10:08:25;14.50;66.10
58519;DHT22;44310;48.106;12.008;2023-02-28T10:10:56;14.50;66.20
58519;DHT22;44310;48.106;12.008;2023-02-28T10:16:27;14.40;64.80
58519;DHT22;44310;48.106;12.008;2023-02-28T10:21:39;14.10;62.40
58519;DHT22;44310;48.106;12.008;2023-02-28T10:27:40;14.10;61.80
58519;DHT22;44310;48.106;12.008;2023-02-28T10:29:50;14.20;62.00
58519;DHT22;44310;48.106;12.008;2023-02-28T10:32:19;14.30;62.50
58519;DHT22;44310;48.106;12.008;2023-02-28T10:34:59;14.30;63.10
58519;DHT22;44310;48.106;12.008;2023-02-28T10:37:27;14.40;63.50
58519;DHT22;44310;48.106;12.008;2023-02-28T10:39:55;13.70;62.10
58519;DHT22;44310;48.106;12.008;2023-02-28T10:42:28;14.50;63.50
58519;DHT22;44310;48.106;12.008;2023-02-28T10:45:34;14.50;64.70
58519;DHT22;44310;48.106;12.008;2023-02-28T10:48:27;15.20;65.40
58519;DHT22;44310;48.106;12.008;2023-02-28T10:50:54;14.60;67.40
58519;DHT22;44310;48.106;12.008;2023-02-28T11:03:58;14.30;64.40
58519;DHT22;44310;48.106;12.008;2023-02-28T11:06:33;14.30;64.40
58519;DHT22;44310;48.106;12.008;2023-02-28T11:09:15;14.40;64.60
58519;DHT22;44310;48.106;12.008;2023-02-28T11:11:46;14.00;62.10
58519;DHT22;44310;48.106;12.008;2023-02-28T11:14:28;13.60;62.70
58519;DHT22;44310;48.106;12.008;2023-02-28T11:17:01;14.00;63.30
58519;DHT22;44310;48.106;12.008;2023-02-28T11:19:34;14.00;63.70
58519;DHT22;44310;48.106;12.008;2023-02-28T11:22:05;15.50;65.10
58519;DHT22;44310;48.106;12.008;2023-02-28T11:24:37;14.00;64.00
58519;DHT22;44310;48.106;12.008;2023-02-28T11:27:57;14.00;63.80
58519;DHT22;44310;48.106;12.008;2023-02-28T11:30:26;14.00;64.50
58519;DHT22;44310;48.106;12.008;2023-02-28T11:32:54;14.00;65.30
58519;DHT22;44310;48.106;12.008;2023-02-28T11:35:33;14.00;65.70
58519;DHT22;44310;48.106;12.008;2023-02-28T11:38:04;14.00;66.00
58519;DHT22;44310;48.106;12.008;2023-02-28T11:40:43;14.30;66.30
58519;DHT22;44310;48.106;12.008;2023-02-28T11:46:30;14.10;65.50
58519;DHT22;44310;48.106;12.008;2023-02-28T11:51:59;14.10;66.30
58519;DHT22;44310;48.106;12.008;2023-02-28T11:59:45;14.10;65.80
58519;DHT22;44310;48.106;12.008;2023-02-28T12:05:43;14.40;65.60
58519;DHT22;44310;48.106;12.008;2023-02-28T12:08:06;14.10;65.60
58519;DHT22;44310;48.106;12.008;2023-02-28T12:10:44;14.10;65.60
58519;DHT22;44310;48.106;12.008;2023-02-28T12:13:24;14.10;65.30
58519;DHT22;44310;48.106;12.008;2023-02-28T12:22:16;14.10;65.20
58519;DHT22;44310;48.106;12.008;2023-02-28T12:27:23;14.10;65.40
58519;DHT22;44310;48.106;12.008;2023-02-28T12:30:19;14.60;65.70
58519;DHT22;44310;48.106;12.008;2023-02-28T12:33:10;14.10;65.20
58519;DHT22;44310;48.106;12.008;2023-02-28T12:35:57;14.10;65.10
58519;DHT22;44310;48.106;12.008;2023-02-28T12:38:38;14.10;65.80
58519;DHT22;44310;48.106;12.008;2023-02-28T12:41:13;14.00;65.90
58519;DHT22;44310;48.106;12.008;2023-02-28T12:43:46;14.10;66.10
58519;DHT22;44310;48.106;12.008;2023-02-28T12:46:21;14.10;66.00
58519;DHT22;44310;48.106;12.008;2023-02-28T12:48:55;14.10;65.60
58519;DHT22;44310;48.106;12.008;2023-02-28T12:51:24;14.10;66.10
58519;DHT22;44310;48.106;12.008;2023-02-28T12:54:12;14.20;66.60
58519;DHT22;44310;48.106;12.008;2023-02-28T12:56:56;14.20;66.70
58519;DHT22;44310;48.106;12.008;2023-02-28T12:59:27;14.20;66.40
58519;DHT22;44310;48.106;12.008;2023-02-28T13:02:02;14.20;65.60
58519;DHT22;44310;48.106;12.008;2023-02-28T13:10:15;14.20;64.80
58519;DHT22;44310;48.106;12.008;2023-02-28T13:12:51;14.10;64.70
58519;DHT22;44310;48.106;12.008;2023-02-28T13:17:50;14.10;64.90
58519;DHT22;44310;48.106;12.008;2023-02-28T13:22:52;14.20;64.80
58519;DHT22;44310;48.106;12.008;2023-02-28T13:27:50;14.20;64.40
58519;DHT22;44310;48.106;12.008;2023-02-28T13:33:30;14.10;64.40
58519;DHT22;44310;48.106;12.008;2023-02-28T13:38:44;14.20;64.90
58519;DHT22;44310;48.106;12.008;2023-02-28T13:44:17;14.20;64.40
58519;DHT22;44310;48.106;12.008;2023-02-28T13:49:31;14.20;64.50
58519;DHT22;44310;48.106;12.008;2023-02-28T14:05:39;14.20;64.00
58519;DHT22;44310;48.106;12.008;2023-02-28T14:08:18;14.20;63.90
58519;DHT22;44310;48.106;12.008;2023-02-28T14:10:49;14.20;63.70
58519;DHT22;44310;48.106;12.008;2023-02-28T14:13:43;14.30;63.70
58519;DHT22;44310;48.106;12.008;2023-02-28T14:16:23;14.30;63.60
58519;DHT22;44310;48.106;12.008;2023-02-28T14:19:12;14.20;63.40
58519;DHT22;44310;48.106;12.008;2023-02-28T14:27:43;14.30;63.50
58519;DHT22;44310;48.106;12.008;2023-02-28T14:33:18;14.30;63.50
58519;DHT22;44310;48.106;12.008;2023-02-28T14:36:10;14.30;63.80
58519;DHT22;44310;48.106;12.008;2023-02-28T14:38:52;14.70;64.40
58519;DHT22;44310;48.106;12.008;2023-02-28T14:43:55;14.30;64.20
58519;DHT22;44310;48.106;12.008;2023-02-28T14:46:27;14.30;64.30
58519;DHT22;44310;48.106;12.008;2023-02-28T14:48:56;14.30;64.60
58519;DHT22;44310;48.106;12.008;2023-02-28T14:51:23;13.70;64.60
58519;DHT22;44310;48.106;12.008;2023-02-28T14:53:59;14.30;65.00
58519;DHT22;44310;48.106;12.008;2023-02-28T14:56:41;14.30;65.10
58519;DHT22;44310;48.106;12.008;2023-02-28T14:59:28;14.30;65.00
58519;DHT22;44310;48.106;12.008;2023-02-28T15:02:22;14.30;64.80
58519;DHT22;44310;48.106;12.008;2023-02-28T15:05:00;14.20;64.40
58519;DHT22;44310;48.106;12.008;2023-02-28T15:07:28;14.20;64.20
58519;DHT22;44310;48.106;12.008;2023-02-28T15:10:13;14.20;64.00
58519;DHT22;44310;48.106;12.008;2023-02-28T15:12:51;14.10;62.80
58519;DHT22;44310;48.106;12.008;2023-02-28T15:15:20;14.10;62.30
58519;DHT22;44310;48.106;12.008;2023-02-28T15:17:59;14.20;62.50
58519;DHT22;44310;48.106;12.008;2023-02-28T15:20:26;14.20;62.70
58519;DHT22;44310;48.106;12.008;2023-02-28T15:22:54;14.40;63.00
58519;DHT22;44310;48.106;12.008;2023-02-28T15:25:23;14.30;63.10
58519;DHT22;44310;48.106;12.008;2023-02-28T15:27:53;14.40;64.50
58519;DHT22;44310;48.106;12.008;2023-02-28T15:30:27;14.30;64.10
58519;DHT22;44310;48.106;12.008;2023-02-28T15:33:19;14.40;64.20
58519;DHT22;44310;48.106;12.008;2023-02-28T15:35:47;14.40;65.00
58519;DHT22;44310;48.106;12.008;2023-02-28T15:38:25;14.40;66.10
58519;DHT22;44310;48.106;12.008;2023-02-28T15:40:55;14.70;66.80
58519;DHT22;44310;48.106;12.008;2023-02-28T15:46:07;14.60;66.90
58519;DHT22;44310;48.106;12.008;2023-02-28T15:48:45;14.60;68.90
58519;DHT22;44310;48.106;12.008;2023-02-28T15:51:18;14.60;68.50
58519;DHT22;44310;48.106;12.008;2023-02-28T15:54:01;14.60;68.90
58519;DHT22;44310;48.106;12.008;2023-02-28T15:56:44;14.60;69.40
58519;DHT22;44310;48.106;12.008;2023-02-28T15:59:20;14.70;69.70
58519;DHT22;44310;48.106;12.008;2023-02-28T16:02:18;14.70;70.40
58519;DHT22;44310;48.106;12.008;2023-02-28T16:04:59;14.70;70.70
58519;DHT22;44310;48.106;12.008;2023-02-28T16:07:27;14.70;71.20
58519;DHT22;44310;48.106;12.008;2023-02-28T16:09:55;14.90;72.00
58519;DHT22;44310;48.106;12.008;2023-02-28T16:12:26;14.80;72.00
58519;DHT22;44310;48.106;12.008;2023-02-28T16:14:57;14.80;72.30
58519;DHT22;44310;48.106;12.008;2023-02-28T16:17:26;14.80;72.70
58519;DHT22;44310;48.106;12.008;2023-02-28T16:19:54;14.80;72.60
58519;DHT22;44310;48.106;12.008;2023-02-28T16:22:22;14.80;72.90
58519;DHT22;44310;48.106;12.008;2023-02-28T16:24:49;14.80;73.10
58519;DHT22;44310;48.106;12.008;2023-02-28T16:27:17;14.80;73.60
58519;DHT22;44310;48.106;12.008;2023-02-28T16:29:46;14.80;73.70
58519;DHT22;44310;48.106;12.008;2023-02-28T16:32:15;14.80;73.80
58519;DHT22;44310;48.106;12.008;2023-02-28T16:34:43;15.40;74.30
58519;DHT22;44310;48.106;12.008;2023-02-28T16:37:15;14.80;74.00
58519;DHT22;44310;48.106;12.008;2023-02-28T16:39:44;14.80;74.20
58519;DHT22;44310;48.106;12.008;2023-02-28T16:42:26;14.80;74.40
58519;DHT22;44310;48.106;12.008;2023-02-28T16:44:54;15.00;74.70
58519;DHT22;44310;48.106;12.008;2023-02-28T16:47:22;14.80;74.70
58519;DHT22;44310;48.106;12.008;2023-02-28T16:49:49;14.90;74.70
58519;DHT22;44310;48.106;12.008;2023-02-28T16:52:16;14.80;74.70
58519;DHT22;44310;48.106;12.008;2023-02-28T16:54:43;14.80;74.70
58519;DHT22;44310;48.106;12.008;2023-02-28T16:57:19;14.80;74.50
58519;DHT22;44310;48.106;12.008;2023-02-28T16:59:49;14.60;74.50
58519;DHT22;44310;48.106;12.008;2023-02-28T17:02:18;14.30;74.30
58519;DHT22;44310;48.106;12.008;2023-02-28T17:04:48;14.80;74.50
58519;DHT22;44310;48.106;12.008;2023-02-28T17:07:16;14.80;74.30
58519;DHT22;44310;48.106;12.008;2023-02-28T17:09:44;14.90;74.10
58519;DHT22;44310;48.106;12.008;2023-02-28T17:12:12;14.80;74.20
58519;DHT22;44310;48.106;12.008;2023-02-28T17:14:40;14.80;74.20
58519;DHT22;44310;48.106;12.008;2023-02-28T17:17:09;14.90;74.10
58519;DHT22;44310;48.106;12.008;2023-02-28T17:19:36;14.80;73.90
58519;DHT22;44310;48.106;12.008;2023-02-28T17:22:05;15.50;74.30
58519;DHT22;44310;48.106;12.008;2023-02-28T17:24:32;14.80;73.90
58519;DHT22;44310;48.106;12.008;2023-02-28T17:26:59;14.80;73.90
58519;DHT22;44310;48.106;12.008;2023-02-28T17:29:27;14.80;74.00
58519;DHT22;44310;48.106;12.008;2023-02-28T17:31:54;15.30;74.30
58519;DHT22;44310;48.106;12.008;2023-02-28T17:34:24;15.20;74.10
58519;DHT22;44310;48.106;12.008;2023-02-28T17:36:51;15.30;74.10
58519;DHT22;44310;48.106;12.008;2023-02-28T17:39:19;14.80;74.10
58519;DHT22;44310;48.106;12.008;2023-02-28T17:41:55;14.80;74.00
58519;DHT22;44310;48.106;12.008;2023-02-28T17:44:23;14.80;74.50
58519;DHT22;44310;48.106;12.008;2023-02-28T17:46:51;14.80;73.60
58519;DHT22;44310;48.106;12.008;2023-02-28T17:49:19;15.40;73.90
58519;DHT22;44310;48.106;12.008;2023-02-28T17:51:46;14.40;73.10
58519;DHT22;44310;48.106;12.008;2023-02-28T17:54:14;14.80;73.20